Airfield :
LOGIN :

Register | Disclaimer

   EN    FR    IT 

 










Legend :    VFR   Marginal VFR   IFR   Intensive IFR   Very Intensive IFR
Visi :
Ceiling :
>= 8 km
>= 3000ft
5 to 8 km
1000 to 3000 ft
1500m to 5 km
500 to 1000 ft
800 to 1500m
200 to 500 ft
< 800m
< 200 ft
Symbols :   Thunderstorms  Fog  Heavy snow  Heavy precipitations  Wind > 20 kt
SIGMETs :     Misc.  Thunderstorms  Icing  Turbulence  Mountain Waves  Volcanic Ashes






- Airport Elevation : 1516 ft
- IATA code : AGB


EDMA - Augsburg

CURRENT METAR :
  • 282020Z AUTO 18003KT 150V220 9999 // OVC058/// 04/03 Q1014

EXPIRED METARs :
  • 281950Z 15004KT 120V180 CAVOK 04/03 Q1014
  • 281920Z 13005KT CAVOK 04/03 Q1013
  • 281850Z 12005KT CAVOK 04/03 Q1014
  • 281820Z 14004KT 090V230 CAVOK 04/03 Q1014
  • 281750Z 08003KT CAVOK 04/03 Q1014

TAF TAF EDMA
Valid from the 28 at 18:00 until the 29 at 03:00 UTC


281700Z 2818/2903 VRB03KT 9999 SCT030



MET'MAP, your aeronautical weather chart ! - Copyright ORBIFLY December 2007 - Disclaimer

ORBIFLY MET'MAP TEAM :

Programming & Development : Alexandra Zaïnal
Original concept : Baudouin d'Aumeries
Technical & hardware support : Manuel Goepfert
Assistance : Marc-Olivier Méhu




SOURCES & CREDITS :

   NOAA